Time;durP1;ratioP1;P1;durP2;ratioP2;P2;SDS_P1;SDS_P2;PMS_P1;PMS_P2;Temp;Humidity;BMP_temperature;BMP_pressure;BME280_temperature;BME280_humidity;BME280_pressure;Samples;Min_cycle;Max_cycle;Signal;HPM_P1;HPM_P2
2022/07/11 00:02:20;;;;;;;1.33;0.73;;;15.90;99.90;;;;;;5040610;28;20501;-76
2022/07/11 00:04:46;;;;;;;1.17;0.68;;;15.80;99.90;;;;;;5038780;28;20497;-78
2022/07/11 00:07:12;;;;;;;1.05;0.52;;;15.80;99.90;;;;;;5038437;28;20487;-77
2022/07/11 00:09:38;;;;;;;0.95;0.50;;;15.80;99.90;;;;;;5044678;28;20115;-80
2022/07/11 00:12:04;;;;;;;0.60;0.30;;;15.80;99.90;;;;;;5038419;28;20053;-80
2022/07/11 00:14:30;;;;;;;1.10;0.55;;;15.80;99.90;;;;;;5039289;28;20124;-77
2022/07/11 00:16:56;;;;;;;1.52;0.77;;;15.80;99.90;;;;;;5040930;28;20163;-78
2022/07/11 00:19:22;;;;;;;0.98;0.50;;;15.80;99.90;;;;;;5037453;28;20051;-78
2022/07/11 00:21:49;;;;;;;1.58;0.60;;;15.70;99.90;;;;;;5040933;28;20033;-78
2022/07/11 00:24:17;;;;;;;1.63;0.52;;;15.80;99.90;;;;;;5038777;28;20703;-78
2022/07/11 00:26:43;;;;;;;1.35;0.77;;;15.80;99.90;;;;;;5020212;28;20567;-77
2022/07/11 00:29:09;;;;;;;1.65;0.73;;;15.80;99.90;;;;;;5039553;28;20040;-78
2022/07/11 00:31:34;;;;;;;0.88;0.68;;;15.80;99.90;;;;;;5054282;28;20133;-77
2022/07/11 00:34:00;;;;;;;1.48;0.50;;;15.80;99.90;;;;;;5039718;28;20491;-78
2022/07/11 00:36:25;;;;;;;1.25;0.60;;;15.80;99.90;;;;;;5040827;28;20041;-77
2022/07/11 00:38:51;;;;;;;0.80;0.50;;;15.80;99.90;;;;;;5038200;28;20398;-78
2022/07/11 00:41:18;;;;;;;1.85;0.68;;;15.80;99.90;;;;;;5034403;28;20497;-77
2022/07/11 00:43:55;;;;;;;0.80;0.28;;;15.70;99.90;;;;;;5038721;28;20139;-77
2022/07/11 00:46:22;;;;;;;0.55;0.38;;;15.70;99.90;;;;;;5039426;28;20758;-78
2022/07/11 00:48:48;;;;;;;1.63;0.50;;;15.70;99.90;;;;;;5039167;28;20480;-78
2022/07/11 00:51:13;;;;;;;1.13;0.60;;;15.70;99.90;;;;;;5040798;28;20164;-78
2022/07/11 00:53:40;;;;;;;1.02;0.50;;;15.70;99.90;;;;;;5040172;28;20025;-78
2022/07/11 00:56:07;;;;;;;1.38;0.60;;;15.70;99.90;;;;;;5038447;28;20064;-78
2022/07/11 00:58:33;;;;;;;0.50;0.20;;;15.70;99.90;;;;;;5037718;28;20029;-78
2022/07/11 01:00:59;;;;;;;1.85;0.65;;;15.60;99.90;;;;;;5039240;28;20489;-78
2022/07/11 01:03:25;;;;;;;0.93;0.52;;;15.60;99.90;;;;;;5035987;28;20446;-77
2022/07/11 01:05:50;;;;;;;2.40;0.43;;;15.60;99.90;;;;;;5038614;28;20041;-78
2022/07/11 01:08:16;;;;;;;1.67;0.47;;;15.60;99.90;;;;;;5039056;28;20049;-78
2022/07/11 01:10:42;;;;;;;0.98;0.52;;;15.60;99.90;;;;;;5054543;28;20044;-78
2022/07/11 01:13:08;;;;;;;0.73;0.40;;;15.50;99.90;;;;;;5033704;28;20084;-77
2022/07/11 01:15:36;;;;;;;1.23;0.60;;;15.60;99.90;;;;;;5037968;28;20068;-77
2022/07/11 01:18:03;;;;;;;1.38;0.60;;;15.50;99.90;;;;;;5038253;28;20620;-77
2022/07/11 01:20:29;;;;;;;1.63;0.57;;;15.50;99.90;;;;;;5038046;28;20037;-78
2022/07/11 01:23:08;;;;;;;1.95;0.30;;;15.50;99.90;;;;;;5033323;28;20483;-78
2022/07/11 01:25:34;;;;;;;0.63;0.22;;;15.50;99.90;;;;;;5043610;28;20048;-78
2022/07/11 01:28:06;;;;;;;0.88;0.40;;;15.50;99.90;;;;;;5037609;28;20203;-77
2022/07/11 01:30:32;;;;;;;1.15;0.50;;;15.50;99.90;;;;;;5035944;28;20698;-77
2022/07/11 01:32:59;;;;;;;1.88;0.60;;;15.50;99.90;;;;;;5039193;28;20045;-78
2022/07/11 01:35:25;;;;;;;0.70;0.40;;;15.50;99.90;;;;;;5035135;28;20044;-77
2022/07/11 01:37:51;;;;;;;1.05;0.45;;;15.50;99.90;;;;;;5023646;28;20037;-78
2022/07/11 01:40:17;;;;;;;0.63;0.30;;;15.50;99.90;;;;;;5038371;28;20041;-78
2022/07/11 01:42:43;;;;;;;0.77;0.40;;;15.60;99.90;;;;;;5032609;28;20041;-78
2022/07/11 01:45:10;;;;;;;0.70;0.28;;;15.50;99.90;;;;;;5038496;28;20037;-77
2022/07/11 01:47:36;;;;;;;0.65;0.40;;;15.50;99.90;;;;;;5038022;28;20071;-79
2022/07/11 01:50:02;;;;;;;1.17;0.35;;;15.50;99.90;;;;;;5037923;28;20383;-79
2022/07/11 01:52:28;;;;;;;0.65;0.40;;;15.50;99.90;;;;;;5038784;28;20518;-78
2022/07/11 01:54:54;;;;;;;0.52;0.30;;;15.50;99.90;;;;;;5054491;28;20091;-78
2022/07/11 01:57:20;;;;;;;1.00;0.63;;;15.50;99.90;;;;;;5035045;28;20099;-77
2022/07/11 01:59:46;;;;;;;0.22;0.20;;;15.50;99.90;;;;;;5039452;28;20120;-78
2022/07/11 02:02:12;;;;;;;0.90;0.47;;;15.50;99.90;;;;;;5040105;28;20055;-78
2022/07/11 02:04:37;;;;;;;1.00;0.38;;;15.50;99.90;;;;;;5038524;28;20425;-78
2022/07/11 02:07:03;;;;;;;0.85;0.50;;;15.50;99.90;;;;;;5017254;28;20044;-78
2022/07/11 02:09:29;;;;;;;1.35;0.38;;;15.50;99.90;;;;;;5039322;28;20052;-79
2022/07/11 02:11:55;;;;;;;0.40;0.38;;;15.50;99.90;;;;;;5040927;28;20049;-78
2022/07/11 02:14:21;;;;;;;1.05;0.30;;;15.50;99.90;;;;;;5035826;28;20518;-78
2022/07/11 02:16:47;;;;;;;0.57;0.30;;;15.50;99.90;;;;;;5026437;28;20063;-78
2022/07/11 02:19:13;;;;;;;0.95;0.30;;;15.50;99.90;;;;;;5039547;28;20025;-79
2022/07/11 02:21:39;;;;;;;0.77;0.40;;;15.40;99.90;;;;;;5038351;28;20624;-78
2022/07/11 02:24:04;;;;;;;0.75;0.40;;;15.50;99.90;;;;;;5036925;28;20053;-79
2022/07/11 02:26:30;;;;;;;0.40;0.20;;;15.50;99.90;;;;;;5035505;28;20048;-79
2022/07/11 02:28:56;;;;;;;1.13;0.60;;;15.40;99.90;;;;;;5036118;28;20148;-78
2022/07/11 02:31:22;;;;;;;0.70;0.30;;;15.40;99.90;;;;;;5040978;28;20422;-79
2022/07/11 02:33:48;;;;;;;0.75;0.30;;;15.40;99.90;;;;;;5038526;28;20041;-79
2022/07/11 02:36:13;;;;;;;0.98;0.40;;;15.40;99.90;;;;;;5039414;28;20604;-79
2022/07/11 02:38:39;;;;;;;0.77;0.35;;;15.40;99.90;;;;;;5035932;28;20071;-79
2022/07/11 02:41:05;;;;;;;0.85;0.50;;;15.30;99.90;;;;;;5039739;28;20135;-78
2022/07/11 02:43:31;;;;;;;0.82;0.45;;;15.40;99.90;;;;;;5034866;28;20095;-78
2022/07/11 02:45:56;;;;;;;1.02;0.50;;;15.40;99.90;;;;;;5035337;28;20474;-78
2022/07/11 02:48:22;;;;;;;0.88;0.45;;;15.40;99.90;;;;;;5038272;28;20091;-79
2022/07/11 02:50:48;;;;;;;1.48;0.55;;;15.40;99.90;;;;;;5036466;28;20055;-79
2022/07/11 02:53:13;;;;;;;1.15;0.63;;;15.40;99.90;;;;;;5036510;28;20482;-79
2022/07/11 02:55:39;;;;;;;1.83;0.70;;;15.40;99.90;;;;;;5036555;28;20561;-79
2022/07/11 02:58:05;;;;;;;1.70;0.80;;;15.40;99.90;;;;;;5034071;28;20449;-79
2022/07/11 03:00:31;;;;;;;1.15;0.77;;;15.40;99.90;;;;;;5037594;28;20063;-79
2022/07/11 03:02:57;;;;;;;1.17;0.47;;;15.40;99.90;;;;;;5037762;28;20064;-78
2022/07/11 03:05:22;;;;;;;2.25;0.98;;;15.30;99.90;;;;;;5021121;28;20442;-79
2022/07/11 03:07:48;;;;;;;1.23;0.65;;;15.40;99.90;;;;;;5034844;28;20111;-78
2022/07/11 03:10:14;;;;;;;3.05;1.10;;;15.40;99.90;;;;;;5036595;28;20025;-78
2022/07/11 03:12:41;;;;;;;1.52;0.63;;;15.30;99.90;;;;;;5036244;28;21018;-78
2022/07/11 03:15:07;;;;;;;1.23;0.75;;;15.30;99.90;;;;;;5037396;28;20447;-78
2022/07/11 03:17:34;;;;;;;1.33;0.77;;;15.30;99.90;;;;;;5035129;28;20420;-79
2022/07/11 03:20:00;;;;;;;1.67;0.77;;;15.30;99.90;;;;;;5036085;28;20052;-78
2022/07/11 03:22:26;;;;;;;2.42;0.95;;;15.30;99.90;;;;;;5039587;28;20036;-78
2022/07/11 03:24:51;;;;;;;1.30;0.60;;;15.30;99.90;;;;;;5038300;28;20514;-79
2022/07/11 03:27:17;;;;;;;2.83;0.90;;;15.30;99.90;;;;;;5033953;28;20071;-79
2022/07/11 03:29:43;;;;;;;1.85;0.98;;;15.30;99.90;;;;;;5040612;28;20547;-79
2022/07/11 03:32:09;;;;;;;1.50;0.88;;;15.40;99.90;;;;;;5039563;28;20658;-78
2022/07/11 03:34:35;;;;;;;2.55;0.98;;;15.40;99.90;;;;;;5044048;28;20068;-78
2022/07/11 03:37:02;;;;;;;1.83;0.85;;;15.30;99.90;;;;;;5041576;28;20122;-79
2022/07/11 03:39:28;;;;;;;2.92;0.88;;;15.40;99.90;;;;;;5038534;28;20037;-79
2022/07/11 03:41:53;;;;;;;2.80;0.73;;;15.30;99.90;;;;;;5041305;28;20426;-79
2022/07/11 03:44:19;;;;;;;1.80;0.77;;;15.40;99.90;;;;;;5041930;28;20033;-80
2022/07/11 03:46:44;;;;;;;2.20;0.93;;;15.40;99.90;;;;;;5037645;28;20474;-80
2022/07/11 03:49:11;;;;;;;1.40;0.80;;;15.30;99.90;;;;;;5040458;28;20556;-79
2022/07/11 03:51:37;;;;;;;4.28;1.17;;;15.30;99.90;;;;;;5042191;28;20128;-79
2022/07/11 03:54:03;;;;;;;2.47;1.20;;;15.30;99.90;;;;;;5038965;28;20191;-79
2022/07/11 03:56:28;;;;;;;2.03;1.08;;;15.30;99.90;;;;;;5040949;28;20044;-79
2022/07/11 03:58:54;;;;;;;1.85;0.77;;;15.30;99.90;;;;;;5037559;28;20037;-79
2022/07/11 04:01:20;;;;;;;1.63;0.80;;;15.30;99.90;;;;;;5020707;28;20036;-79
2022/07/11 04:03:46;;;;;;;2.35;0.75;;;15.30;99.90;;;;;;5041260;28;20051;-78
2022/07/11 04:06:12;;;;;;;1.15;0.47;;;15.30;99.90;;;;;;5041310;28;20037;-79
2022/07/11 04:08:38;;;;;;;1.60;0.75;;;15.30;99.90;;;;;;5042886;28;20037;-79
2022/07/11 04:11:04;;;;;;;1.27;0.68;;;15.30;99.90;;;;;;5040409;28;20702;-80
2022/07/11 04:13:30;;;;;;;1.42;0.68;;;15.30;99.90;;;;;;5040361;28;20056;-80
2022/07/11 04:15:56;;;;;;;1.15;0.40;;;15.30;99.90;;;;;;5039949;28;20048;-80
2022/07/11 04:18:22;;;;;;;2.42;0.93;;;15.40;99.90;;;;;;5040495;28;20040;-80
2022/07/11 04:20:49;;;;;;;1.45;0.75;;;15.30;99.90;;;;;;5038448;28;20044;-81
2022/07/11 04:23:15;;;;;;;1.92;0.70;;;15.40;99.90;;;;;;5058828;28;20474;-81
2022/07/11 04:25:41;;;;;;;0.77;0.50;;;15.30;99.90;;;;;;5039972;28;20086;-80
2022/07/11 04:28:06;;;;;;;1.90;0.68;;;15.30;99.90;;;;;;5037527;28;20044;-80
2022/07/11 04:30:33;;;;;;;2.20;0.75;;;15.30;99.90;;;;;;5037964;28;20727;-80
2022/07/11 04:32:58;;;;;;;1.85;0.63;;;15.30;99.90;;;;;;5037999;28;20055;-81
2022/07/11 04:35:24;;;;;;;0.95;0.40;;;15.40;99.90;;;;;;5056117;28;20041;-81
2022/07/11 04:37:50;;;;;;;1.77;0.55;;;15.30;99.90;;;;;;5036037;28;20037;-81
2022/07/11 04:40:17;;;;;;;1.33;0.65;;;15.30;99.90;;;;;;5039117;28;20110;-80
2022/07/11 04:42:43;;;;;;;1.33;0.60;;;15.30;99.90;;;;;;5036765;28;20706;-81
2022/07/11 04:45:09;;;;;;;1.80;0.75;;;15.30;99.90;;;;;;5039143;28;20131;-80
2022/07/11 04:47:34;;;;;;;1.23;0.60;;;15.40;99.90;;;;;;5041675;28;20055;-80
2022/07/11 04:50:00;;;;;;;1.42;0.73;;;15.40;99.90;;;;;;5039828;28;20402;-80
2022/07/11 04:52:26;;;;;;;1.63;0.70;;;15.40;99.90;;;;;;5036324;28;20548;-80
2022/07/11 04:54:53;;;;;;;1.08;0.70;;;15.40;99.90;;;;;;5039295;28;20048;-81
2022/07/11 04:57:18;;;;;;;1.60;0.65;;;15.40;99.90;;;;;;5035677;28;20037;-81
2022/07/11 04:59:44;;;;;;;1.08;0.43;;;15.40;99.90;;;;;;5037774;28;20048;-81
2022/07/11 05:02:10;;;;;;;1.73;0.75;;;15.40;99.90;;;;;;5055211;28;20037;-81
2022/07/11 05:04:36;;;;;;;1.52;0.77;;;15.40;99.90;;;;;;5038141;28;20410;-81
2022/07/11 05:07:01;;;;;;;0.93;0.40;;;15.40;99.90;;;;;;5038950;28;20030;-80
2022/07/11 05:09:27;;;;;;;0.88;0.35;;;15.30;99.90;;;;;;5034079;28;20033;-80
2022/07/11 05:11:53;;;;;;;0.43;0.30;;;15.40;99.90;;;;;;5021152;28;20045;-80
2022/07/11 05:14:19;;;;;;;1.13;0.40;;;15.50;99.90;;;;;;5038130;28;20812;-80
2022/07/11 05:16:44;;;;;;;0.73;0.50;;;15.50;99.90;;;;;;5044301;28;20087;-80
2022/07/11 05:19:10;;;;;;;0.82;0.30;;;15.50;99.90;;;;;;5041272;28;20091;-80
2022/07/11 05:21:36;;;;;;;0.30;0.20;;;15.50;99.90;;;;;;5037089;28;20406;-79
2022/07/11 05:24:01;;;;;;;0.60;0.40;;;15.50;99.90;;;;;;5021054;28;20813;-81
2022/07/11 05:26:27;;;;;;;1.00;0.50;;;15.50;99.90;;;;;;5041549;28;20691;-80
2022/07/11 05:28:53;;;;;;;0.20;0.10;;;15.60;99.90;;;;;;5022579;28;20055;-81
2022/07/11 05:31:18;;;;;;;3.55;0.20;;;15.60;99.90;;;;;;5037117;28;20071;-81
2022/07/11 05:33:44;;;;;;;0.28;0.20;;;15.70;99.90;;;;;;5040369;28;20098;-81
2022/07/11 05:36:10;;;;;;;1.05;0.40;;;15.70;99.90;;;;;;5037758;28;20033;-80
2022/07/11 05:38:35;;;;;;;0.22;0.20;;;15.80;99.90;;;;;;5037653;28;20037;-80
2022/07/11 05:41:01;;;;;;;1.60;0.50;;;15.70;99.90;;;;;;5034605;28;20040;-81
2022/07/11 05:43:28;;;;;;;0.25;0.13;;;15.80;99.90;;;;;;5038355;28;20131;-80
2022/07/11 05:45:54;;;;;;;0.20;0.10;;;15.80;99.90;;;;;;5021946;28;20038;-81
2022/07/11 05:48:20;;;;;;;0.50;0.10;;;15.80;99.90;;;;;;5040808;28;20055;-80
2022/07/11 05:50:45;;;;;;;0.95;0.47;;;15.80;99.90;;;;;;5036130;28;20175;-80
2022/07/11 05:53:11;;;;;;;0.45;0.13;;;15.80;99.90;;;;;;5037543;28;20087;-80
2022/07/11 05:55:36;;;;;;;0.40;0.10;;;15.80;99.90;;;;;;5036187;28;20048;-79
2022/07/11 05:58:02;;;;;;;0.82;0.40;;;15.80;99.90;;;;;;5038195;28;20155;-80
2022/07/11 06:00:28;;;;;;;0.80;0.30;;;15.80;99.90;;;;;;5040644;28;20041;-81
2022/07/11 06:02:54;;;;;;;0.32;0.17;;;15.80;99.90;;;;;;5037771;28;20040;-81
2022/07/11 06:05:20;;;;;;;0.77;0.20;;;15.80;99.90;;;;;;5038925;28;20037;-80
2022/07/11 06:10:31;;;;;;;0.52;0.25;;;15.80;99.90;;;;;;5052956;28;20115;-81
2022/07/11 06:12:57;;;;;;;0.38;0.20;;;15.70;99.90;;;;;;5036727;28;20118;-81
2022/07/11 06:15:24;;;;;;;0.30;0.20;;;15.80;99.90;;;;;;5039973;28;20041;-80
2022/07/11 06:17:50;;;;;;;1.33;0.38;;;15.80;99.90;;;;;;5052100;28;20044;-81
2022/07/11 06:20:16;;;;;;;0.50;0.20;;;15.80;99.90;;;;;;5037573;28;20036;-81
2022/07/11 06:22:41;;;;;;;0.73;0.20;;;15.80;99.90;;;;;;5036697;28;20384;-75
2022/07/11 06:25:08;;;;;;;0.40;0.20;;;15.70;99.90;;;;;;5035098;28;20091;-81
2022/07/11 06:27:35;;;;;;;0.60;0.28;;;15.80;99.90;;;;;;5036877;28;20045;-81
2022/07/11 06:30:00;;;;;;;0.55;0.25;;;15.80;99.90;;;;;;5039946;28;20037;-81
2022/07/11 06:32:26;;;;;;;0.20;0.10;;;15.70;99.90;;;;;;5022691;28;20052;-81
2022/07/11 06:34:52;;;;;;;0.35;0.10;;;15.80;99.90;;;;;;5052358;28;20033;-81
2022/07/11 06:37:18;;;;;;;0.55;0.20;;;15.80;99.90;;;;;;5036833;28;20123;-82
2022/07/11 06:39:44;;;;;;;0.85;0.30;;;15.90;99.90;;;;;;5033258;28;20043;-84
2022/07/11 06:42:10;;;;;;;0.30;0.10;;;15.90;99.90;;;;;;5031145;28;20156;-80
2022/07/11 06:44:35;;;;;;;0.40;0.10;;;15.90;99.90;;;;;;5033979;28;20052;-85
2022/07/11 06:47:01;;;;;;;0.25;0.10;;;16.00;99.90;;;;;;5035083;28;20383;-83
2022/07/11 06:49:26;;;;;;;0.00;0.00;;;16.00;99.90;;;;;;5040704;28;20482;-84
2022/07/11 06:51:52;;;;;;;0.30;0.10;;;16.10;99.90;;;;;;5021530;28;20029;-82
2022/07/11 06:54:17;;;;;;;0.47;0.15;;;16.10;99.90;;;;;;5037242;28;20053;-82
2022/07/11 06:56:43;;;;;;;0.20;0.10;;;16.30;99.90;;;;;;5035804;28;20045;-83
2022/07/11 06:59:08;;;;;;;0.30;0.10;;;16.30;99.90;;;;;;5031487;28;20045;-82
2022/07/11 07:01:34;;;;;;;1.85;0.20;;;16.30;99.90;;;;;;5052268;28;20066;-82
2022/07/11 07:03:59;;;;;;;1.95;0.20;;;16.50;99.90;;;;;;5036428;28;20033;-82
2022/07/11 07:06:25;;;;;;;0.25;0.20;;;16.60;99.90;;;;;;5019240;28;20045;-83
2022/07/11 07:08:51;;;;;;;0.32;0.20;;;16.70;99.90;;;;;;5037093;28;20040;-84
2022/07/11 07:11:16;;;;;;;0.17;0.00;;;16.70;99.90;;;;;;5037912;28;20337;-82
2022/07/11 07:13:42;;;;;;;2.95;0.30;;;16.70;99.90;;;;;;5031863;28;20154;-83
2022/07/11 07:16:08;;;;;;;0.45;0.20;;;16.70;99.90;;;;;;5036163;28;20041;-83
2022/07/11 07:18:33;;;;;;;0.10;0.00;;;16.80;99.90;;;;;;5015341;28;20053;-83
2022/07/11 07:20:59;;;;;;;0.00;0.00;;;16.80;99.90;;;;;;5017354;28;20037;-83
2022/07/11 07:23:24;;;;;;;0.80;0.22;;;16.90;99.90;;;;;;5038719;28;20099;-82
2022/07/11 07:25:50;;;;;;;0.00;0.00;;;16.90;99.90;;;;;;5021393;28;20474;-80
2022/07/11 07:28:16;;;;;;;0.00;0.00;;;17.00;99.90;;;;;;5036756;28;20079;-81
2022/07/11 07:30:42;;;;;;;0.25;0.10;;;17.00;99.90;;;;;;5038868;28;20175;-85
2022/07/11 07:33:08;;;;;;;0.05;0.05;;;17.00;99.90;;;;;;5035539;28;20114;-80
2022/07/11 07:35:33;;;;;;;0.25;0.10;;;17.10;99.90;;;;;;5034148;28;20130;-83
2022/07/11 07:38:00;;;;;;;0.32;0.10;;;17.20;99.90;;;;;;5038289;28;20028;-81
2022/07/11 07:40:26;;;;;;;0.63;0.20;;;17.20;99.90;;;;;;5037345;28;20045;-81
2022/07/11 07:42:52;;;;;;;0.03;0.00;;;17.30;99.90;;;;;;5009463;28;20040;-81
2022/07/11 07:45:17;;;;;;;0.08;0.08;;;17.30;99.90;;;;;;5032011;28;20041;-81
2022/07/11 07:47:43;;;;;;;0.00;0.00;;;17.30;99.90;;;;;;5020851;28;20029;-80
2022/07/11 07:50:09;;;;;;;0.25;0.10;;;17.30;99.90;;;;;;5038296;28;20033;-82
2022/07/11 07:52:35;;;;;;;0.17;0.05;;;17.20;99.90;;;;;;5035982;28;20041;-83
2022/07/11 07:55:00;;;;;;;0.10;0.00;;;17.20;99.90;;;;;;5052166;28;20410;-84
2022/07/11 07:57:26;;;;;;;0.20;0.03;;;17.20;99.90;;;;;;5015850;28;20041;-81
2022/07/11 08:01:34;;;;;;;0.28;0.13;;;17.10;99.90;;;;;;5034009;28;20033;-81
2022/07/11 08:02:37;;;;;;;0.10;0.00;;;17.20;99.90;;;;;;5033576;28;20390;-82
2022/07/11 08:05:03;;;;;;;0.00;0.00;;;17.20;99.90;;;;;;5031738;28;20041;-81
2022/07/11 08:07:29;;;;;;;0.00;0.00;;;17.20;99.90;;;;;;5050563;28;20033;-81
2022/07/11 08:09:54;;;;;;;0.13;0.10;;;17.30;99.90;;;;;;5017604;28;20037;-80
2022/07/11 08:12:20;;;;;;;0.00;0.00;;;17.40;99.90;;;;;;5032916;28;20429;-81
2022/07/11 08:14:45;;;;;;;0.00;0.00;;;17.40;99.90;;;;;;5034247;28;20045;-82
2022/07/11 08:17:11;;;;;;;0.05;0.00;;;17.50;99.90;;;;;;5033242;28;20048;-81
2022/07/11 08:19:37;;;;;;;0.28;0.10;;;17.40;99.90;;;;;;5021179;28;20055;-80
2022/07/11 08:22:02;;;;;;;0.00;0.00;;;17.40;99.90;;;;;;5036523;28;20059;-72
2022/07/11 08:24:28;;;;;;;0.00;0.00;;;17.30;99.90;;;;;;5042159;28;20044;-83
2022/07/11 08:26:53;;;;;;;0.13;0.10;;;17.30;99.90;;;;;;5038775;28;20132;-81
2022/07/11 08:29:19;;;;;;;0.25;0.10;;;17.40;99.90;;;;;;5040368;28;20039;-81
2022/07/11 08:31:45;;;;;;;0.00;0.00;;;17.50;99.90;;;;;;5036618;28;20502;-80
2022/07/11 08:34:10;;;;;;;0.00;0.00;;;17.60;99.90;;;;;;5036095;28;20095;-81
2022/07/11 08:36:36;;;;;;;0.13;0.00;;;17.70;99.90;;;;;;5034264;28;20037;-81
2022/07/11 08:39:02;;;;;;;0.00;0.00;;;17.70;99.90;;;;;;5020571;28;22161;-80
2022/07/11 08:41:28;;;;;;;0.00;0.00;;;17.60;99.90;;;;;;5052249;28;20103;-81
2022/07/11 08:43:54;;;;;;;0.10;0.00;;;17.50;99.90;;;;;;5034770;28;20041;-80
2022/07/11 08:46:19;;;;;;;0.20;0.00;;;17.50;99.90;;;;;;5034294;28;20044;-81
2022/07/11 08:48:47;;;;;;;0.10;0.05;;;17.40;99.90;;;;;;5041565;28;20033;-82
2022/07/11 08:51:12;;;;;;;0.00;0.00;;;17.40;99.90;;;;;;5034999;28;20064;-81
2022/07/11 08:53:44;;;;;;;0.30;0.10;;;17.50;99.90;;;;;;5038946;28;20114;-81
2022/07/11 08:56:15;;;;;;;0.22;0.05;;;17.50;99.90;;;;;;5035785;28;20045;-81
2022/07/11 08:58:44;;;;;;;0.10;0.00;;;17.60;99.90;;;;;;5034900;28;20102;-81
2022/07/11 09:01:10;;;;;;;0.20;0.10;;;17.60;99.90;;;;;;5035560;28;20131;-82
2022/07/11 09:03:36;;;;;;;0.17;0.08;;;17.60;99.90;;;;;;5036176;28;20072;-82
2022/07/11 09:06:02;;;;;;;0.00;0.00;;;17.60;99.90;;;;;;5049929;28;20485;-82
2022/07/11 09:08:29;;;;;;;0.20;0.05;;;17.60;99.90;;;;;;5017531;28;20038;-82
2022/07/11 09:10:54;;;;;;;0.03;0.00;;;17.60;99.90;;;;;;5034942;28;20033;-83
2022/07/11 09:13:20;;;;;;;0.00;0.00;;;17.50;99.90;;;;;;5031702;28;20103;-82
2022/07/11 09:15:49;;;;;;;0.28;0.08;;;17.60;99.90;;;;;;5038657;28;20041;-82
2022/07/11 09:18:33;;;;;;;0.10;0.10;;;17.60;99.90;;;;;;5035258;28;20052;-81
2022/07/11 09:26:41;;;;;;;0.00;0.00;;;17.90;99.90;;;;;;5052686;28;20403;-79
2022/07/11 09:29:18;;;;;;;0.10;0.10;;;17.80;99.90;;;;;;5034199;28;20037;-79
2022/07/11 09:31:44;;;;;;;0.45;0.20;;;17.90;99.90;;;;;;5033683;28;20076;-78
2022/07/11 09:34:13;;;;;;;0.00;0.00;;;17.80;99.90;;;;;;5037750;28;21584;-79
2022/07/11 09:36:49;;;;;;;0.28;0.10;;;17.70;99.90;;;;;;5038481;28;20048;-79
2022/07/11 09:39:19;;;;;;;0.30;0.10;;;17.70;99.90;;;;;;5035681;28;20048;-79
2022/07/11 09:41:49;;;;;;;0.35;0.10;;;17.70;99.90;;;;;;5015507;28;20052;-79
2022/07/11 09:44:27;;;;;;;0.43;0.10;;;17.70;99.90;;;;;;5052761;28;20052;-77
2022/07/11 09:46:53;;;;;;;0.00;0.00;;;17.70;99.90;;;;;;5055981;28;20033;-84
2022/07/11 09:49:35;;;;;;;0.43;0.10;;;17.70;99.90;;;;;;5032173;28;20082;-83
2022/07/11 09:52:17;;;;;;;0.40;0.20;;;17.80;99.90;;;;;;5032150;28;20102;-84
2022/07/11 09:54:56;;;;;;;0.52;0.10;;;17.80;99.90;;;;;;5035129;28;20494;-82
2022/07/11 09:57:37;;;;;;;0.00;0.00;;;17.80;99.90;;;;;;5031587;28;20052;-85
2022/07/11 10:00:12;;;;;;;0.20;0.08;;;17.80;99.90;;;;;;5033892;28;20045;-84
2022/07/11 10:02:38;;;;;;;0.00;0.00;;;17.80;99.90;;;;;;5051526;28;20048;-84
2022/07/11 10:05:04;;;;;;;0.38;0.17;;;17.80;99.90;;;;;;5021236;28;20049;-84
2022/07/11 10:07:30;;;;;;;0.10;0.00;;;17.80;99.90;;;;;;5037927;28;20458;-83
2022/07/11 10:10:01;;;;;;;0.25;0.10;;;17.80;99.90;;;;;;5037490;28;20040;-83
2022/07/11 10:12:29;;;;;;;0.13;0.00;;;17.80;99.90;;;;;;5036594;28;20049;-83
2022/07/11 10:14:56;;;;;;;0.08;0.08;;;17.90;99.90;;;;;;5037293;28;20044;-83
2022/07/11 10:17:25;;;;;;;0.35;0.10;;;17.90;99.90;;;;;;5017116;28;20041;-84
2022/07/11 10:20:00;;;;;;;0.10;0.05;;;18.00;99.90;;;;;;5038652;28;20040;-84
2022/07/11 10:22:50;;;;;;;0.00;0.00;;;18.00;99.90;;;;;;5055540;28;20674;-84
2022/07/11 10:25:31;;;;;;;0.10;0.10;;;18.00;99.90;;;;;;5030677;28;20572;-80
2022/07/11 10:28:23;;;;;;;0.00;0.00;;;18.00;99.90;;;;;;5036273;28;20045;-83
2022/07/11 10:30:51;;;;;;;0.10;0.00;;;18.00;99.90;;;;;;5036924;28;20045;-84
2022/07/11 10:33:18;;;;;;;0.00;0.00;;;18.00;99.90;;;;;;5036771;28;20043;-84
2022/07/11 10:35:46;;;;;;;0.10;0.00;;;18.00;99.90;;;;;;5038132;28;20437;-84
2022/07/11 10:38:12;;;;;;;0.10;0.10;;;18.10;99.90;;;;;;5019830;28;20045;-83
2022/07/11 10:40:45;;;;;;;0.10;0.10;;;18.10;99.90;;;;;;5037414;28;20831;-79
2022/07/11 10:43:10;;;;;;;0.00;0.00;;;18.10;99.90;;;;;;5047371;28;20143;-83
2022/07/11 10:45:58;;;;;;;0.75;0.35;;;18.10;99.90;;;;;;5044490;28;20155;-83
2022/07/11 10:48:25;;;;;;;0.20;0.10;;;18.10;99.90;;;;;;5024390;28;20300;-84
2022/07/11 10:51:01;;;;;;;0.28;0.10;;;18.00;99.90;;;;;;5020704;28;20504;-83
2022/07/11 10:53:32;;;;;;;0.20;0.10;;;18.00;99.90;;;;;;5035718;28;20065;-84
2022/07/11 10:56:17;;;;;;;0.20;0.10;;;18.00;99.90;;;;;;5036228;28;20094;-83
2022/07/11 10:58:43;;;;;;;0.43;0.10;;;18.00;99.90;;;;;;5033553;28;20683;-85
2022/07/11 11:01:11;;;;;;;0.03;0.03;;;18.10;99.90;;;;;;5035094;28;20441;-80
2022/07/11 11:03:38;;;;;;;0.32;0.22;;;18.10;99.90;;;;;;5032375;28;20461;-84
2022/07/11 11:06:04;;;;;;;0.20;0.10;;;18.20;99.90;;;;;;5037724;28;20053;-82
2022/07/11 11:08:35;;;;;;;0.13;0.05;;;18.20;99.90;;;;;;5040148;28;20037;-82
2022/07/11 11:11:05;;;;;;;0.05;0.00;;;18.20;99.90;;;;;;5022796;28;20044;-81
2022/07/11 11:13:35;;;;;;;0.55;0.13;;;18.20;99.90;;;;;;5059029;28;20561;-83
2022/07/11 11:16:02;;;;;;;0.43;0.38;;;18.20;99.90;;;;;;5041999;28;20033;-82
2022/07/11 11:18:36;;;;;;;0.00;0.00;;;18.30;99.90;;;;;;5045221;28;20039;-83
2022/07/11 11:21:07;;;;;;;0.10;0.10;;;18.40;99.90;;;;;;5038540;28;20402;-83
2022/07/11 11:23:35;;;;;;;0.05;0.00;;;18.30;99.90;;;;;;5038218;28;20042;-83
2022/07/11 11:26:11;;;;;;;0.20;0.10;;;18.40;99.90;;;;;;5035744;28;20044;-83
2022/07/11 11:28:38;;;;;;;0.10;0.10;;;18.50;99.90;;;;;;5037665;28;20444;-82
2022/07/11 11:31:07;;;;;;;0.10;0.10;;;18.60;99.90;;;;;;5022454;28;20506;-84
2022/07/11 11:33:35;;;;;;;0.03;0.00;;;18.60;99.90;;;;;;5036912;28;20375;-82
2022/07/11 11:36:06;;;;;;;0.03;0.00;;;18.80;99.90;;;;;;5045600;28;20946;-83
2022/07/11 11:38:41;;;;;;;0.00;0.00;;;18.80;99.90;;;;;;5035243;28;20376;-82
2022/07/11 11:41:07;;;;;;;;;;;18.90;99.90;;;;;;5048320;28;20041;-82
2022/07/11 11:43:37;;;;;;;0.13;0.10;;;18.90;99.90;;;;;;5035582;28;19928;-83
2022/07/11 11:46:03;;;;;;;0.00;0.00;;;18.90;99.90;;;;;;5044745;28;20057;-83
2022/07/11 11:48:29;;;;;;;0.20;0.10;;;18.90;99.90;;;;;;5039111;28;20033;-83
2022/07/11 11:51:05;;;;;;;0.10;0.10;;;19.00;99.90;;;;;;5041702;28;20080;-83
2022/07/11 11:53:46;;;;;;;0.10;0.10;;;19.00;99.90;;;;;;5025320;28;20034;-84
2022/07/11 11:56:28;;;;;;;0.10;0.10;;;19.10;99.90;;;;;;5044534;28;20033;-82
2022/07/11 11:59:04;;;;;;;0.17;0.15;;;19.10;99.90;;;;;;5051883;28;20036;-82
2022/07/11 12:01:32;;;;;;;0.20;0.10;;;19.10;99.90;;;;;;5063122;28;20077;-82
2022/07/11 12:03:59;;;;;;;0.00;0.00;;;19.10;99.90;;;;;;5047043;28;20896;-82
2022/07/11 12:06:52;;;;;;;0.13;0.10;;;19.00;99.90;;;;;;5041242;28;21960;-83
2022/07/11 12:09:22;;;;;;;0.28;0.20;;;19.00;99.90;;;;;;5040355;28;20042;-82
2022/07/11 12:12:43;;;;;;;0.22;0.10;;;19.10;99.90;;;;;;5039088;28;20501;-82
2022/07/11 12:14:38;;;;;;;0.10;0.10;;;19.10;99.90;;;;;;5039538;28;20045;-82
2022/07/11 12:17:03;;;;;;;0.10;0.10;;;19.20;99.90;;;;;;5050396;28;20036;-82
2022/07/11 12:19:34;;;;;;;0.22;0.17;;;19.20;99.90;;;;;;5027497;28;20609;-82
2022/07/11 12:22:04;;;;;;;0.10;0.10;;;19.20;99.90;;;;;;5042740;28;20494;-82
2022/07/11 12:24:29;;;;;;;0.50;0.10;;;19.30;99.90;;;;;;5053473;28;20044;-83
2022/07/11 12:26:56;;;;;;;0.10;0.10;;;19.40;99.90;;;;;;5032441;28;20064;-82
2022/07/11 12:29:24;;;;;;;0.17;0.13;;;19.30;99.90;;;;;;5041466;28;20611;-83
2022/07/11 12:31:51;;;;;;;0.38;0.10;;;19.30;99.90;;;;;;5057903;28;20048;-83
2022/07/11 12:34:36;;;;;;;0.10;0.10;;;19.30;99.90;;;;;;5043891;28;20082;-83
2022/07/11 12:37:10;;;;;;;0.65;0.20;;;19.30;99.90;;;;;;5041550;28;20048;-83
2022/07/11 12:39:40;;;;;;;0.20;0.10;;;19.40;99.90;;;;;;5037879;28;20801;-82
2022/07/11 12:42:29;;;;;;;0.10;0.10;;;19.40;99.90;;;;;;5059911;28;20076;-82
2022/07/11 12:44:58;;;;;;;0.10;0.10;;;19.50;99.90;;;;;;5038092;28;20487;-82
2022/07/11 12:47:27;;;;;;;0.30;0.20;;;19.60;99.90;;;;;;5056966;28;20513;-86
2022/07/11 12:49:53;;;;;;;0.10;0.10;;;19.60;99.90;;;;;;5044922;28;20071;-85
2022/07/11 12:52:19;;;;;;;1.05;0.20;;;19.70;99.90;;;;;;5038846;28;20466;-86
2022/07/11 12:54:45;;;;;;;0.30;0.20;;;19.70;99.90;;;;;;5043067;28;20037;-86
2022/07/11 12:57:16;;;;;;;0.22;0.10;;;19.70;99.90;;;;;;5059262;28;20383;-84
2022/07/11 12:59:41;;;;;;;0.20;0.20;;;19.70;99.90;;;;;;5038885;28;20041;-85